Airfield :







YOU CAN JOIN US ON...

 
LOGIN :

Register | Disclaimer

   EN    FR    IT 

 









Legend :    VFR   Marginal VFR   IFR   Intensive IFR   Very Intensive IFR
Visi :
Ceiling :
>= 8 km
>= 3000ft
5 to 8 km
1000 to 3000 ft
1500m to 5 km
500 to 1000 ft
800 to 1500m
200 to 500 ft
< 800m
< 200 ft
Symbols :   Thunderstorms  Fog  Heavy snow  Heavy precipitations  Wind > 20 kt






- Airport Elevation : 90 ft
- IATA code : YHU


CYHU - Montréal Saint-Hubert

CURRENT METAR :
  • 072000Z AUTO 27013G21KT 9SM CLR 13/M07 A2974 RMK SLP072

EXPIRED METARs :
  • 071900Z AUTO 27010G22KT 9SM CLR 12/M06 A2977 RMK SLP082
  • 071800Z AUTO 27017G23KT 240V300 9SM CLR 12/M06 A2980 RMK SLP094

TAF TAF CYHU
Valid from the 07 at 18:00 until the 08 at 18:00 UTC


071738Z 0718/0818 27015G25KT P6SM FEW250
BECMG 0721/0723 30012KT
FM080200 02006KT P6SM SCT240
FM080900 01010KT P6SM BKN160 BKN220
FM081400 01012KT P6SM OVC120 RMK FCST BASED ON AUTO OBS. NXT FCST BY 080000Z



MET'MAP, your aeronautical weather chart ! - Copyright ORBIFLY December 2007 - Disclaimer

ORBIFLY MET'MAP TEAM :

Programming & Development : Alexandra Zaïnal
Concept & original design : Baudouin d'Aumeries
Assistance for programming : Marc-Olivier Méhu
Technical & hardware support : Manuel Goepfert

Contact : metmap@orbifly.com




SOURCES & CREDITS :

   NOAA